Evanston, Wyoming
Current Conditions -  °F | °C
As of 8:53 AM on Monday 24 Nov 2014 (Local Time) from KEVW Reporting Station
Few Clouds Few Clouds  
Wind Chill: 13°   Ceiling: Unl
Heat Index: 23°   Visibility: 10mi
Dew Point: 17°   Wind: 9mph
Humidity: 78%   Direction: 290°WNW
Pressure: 30.19"   Gusts: NA
Location:  41.27°N, 110.96°W
Report Text: KEVW 241553Z AUTO 29008KT 10SM FEW042 M05/M08 A3019 RMK AO2 SNB09E18 SLP257 P0000 T10501083
Loading
Personal Weather Stations






























Interactive Weather Map New forecast layout! Learn more

10-Day Weather Forecast

Advertisements
Track Severe Weather on mobile